Time;durP1;ratioP1;P1;durP2;ratioP2;P2;SDS_P1;SDS_P2;PMS_P1;PMS_P2;Temp;Humidity;BMP_temperature;BMP_pressure;BME280_temperature;BME280_humidity;BME280_pressure;Samples;Min_cycle;Max_cycle;Signal;HPM_P1;HPM_P2
2022/09/30 00:01:40;;;;;;;25.38;16.48;;;;;;;20.26;88.22;100213.78;4934276;28;20510;-81
2022/09/30 00:04:09;;;;;;;55.45;18.13;;;;;;;20.34;88.31;100227.28;4951265;28;20114;-83
2022/09/30 00:06:35;;;;;;;33.78;16.95;;;;;;;20.42;88.29;100238.09;4951527;28;20035;-83
2022/09/30 00:09:01;;;;;;;34.00;16.35;;;;;;;20.35;88.48;100234.44;4952332;28;20467;-80
2022/09/30 00:11:30;;;;;;;39.47;16.85;;;;;;;20.36;88.55;100235.31;4952867;28;20035;-81
2022/09/30 00:13:57;;;;;;;38.45;17.13;;;;;;;20.21;88.02;100205.31;4955576;28;20030;-80
2022/09/30 00:16:25;;;;;;;23.42;15.45;;;;;;;20.21;87.96;100202.59;4956035;28;20126;-81
2022/09/30 00:18:54;;;;;;;19.27;14.45;;;;;;;20.42;87.81;100240.81;4956687;28;20106;-79
2022/09/30 00:21:19;;;;;;;26.38;14.88;;;;;;;20.33;88.21;100235.69;4968339;28;20042;-79
2022/09/30 00:23:45;;;;;;;36.65;16.70;;;;;;;20.15;88.82;100217.00;4968133;28;20062;-81
2022/09/30 00:26:14;;;;;;;38.30;18.02;;;;;;;20.25;89.09;100239.38;4966190;28;20027;-80
2022/09/30 00:28:41;;;;;;;31.02;19.00;;;;;;;20.34;89.21;100254.59;4955393;28;20490;-79
2022/09/30 00:31:11;;;;;;;27.20;15.80;;;;;;;20.34;88.11;100254.59;4937590;28;20031;-81
2022/09/30 00:33:36;;;;;;;27.90;16.92;;;;;;;20.00;87.85;100200.69;4938881;28;20046;-80
2022/09/30 00:36:02;;;;;;;33.45;17.67;;;;;;;19.86;88.03;100179.78;4954502;28;20067;-81
2022/09/30 00:38:28;;;;;;;28.88;17.10;;;;;;;20.34;87.70;100264.69;4954825;28;20146;-80
2022/09/30 00:40:55;;;;;;;29.00;17.00;;;;;;;20.28;87.64;100260.00;4937545;28;20544;-80
2022/09/30 00:43:42;;;;;;;37.75;17.67;;;;;;;20.18;87.91;100243.94;4955057;28;20034;-81
2022/09/30 00:46:37;;;;;;;37.65;17.60;;;;;;;20.23;88.46;100268.78;4955075;28;20042;-80
2022/09/30 00:49:24;;;;;;;30.95;17.63;;;;;;;19.97;88.43;100235.72;4955115;28;20031;-80
2022/09/30 00:51:55;;;;;;;35.85;19.65;;;;;;;19.71;88.89;100213.63;4954913;28;20074;-81
2022/09/30 00:54:26;;;;;;;34.72;17.58;;;;;;;20.09;89.40;100278.69;4954741;28;20039;-82
2022/09/30 00:57:05;;;;;;;47.78;17.27;;;;;;;20.09;89.01;100278.69;4954153;28;20070;-81
2022/09/30 00:59:40;;;;;;;30.92;17.85;;;;;;;20.12;88.68;100277.47;4953501;28;20028;-81
2022/09/30 01:02:07;;;;;;;42.70;17.40;;;;;;;20.14;88.52;100280.88;4953076;28;20519;-82
2022/09/30 01:04:33;;;;;;;26.70;17.38;;;;;;;20.07;88.27;100269.03;4953584;28;20038;-80
2022/09/30 01:07:02;;;;;;;39.50;17.83;;;;;;;20.17;88.05;100285.94;4953306;28;20042;-80
2022/09/30 01:09:28;;;;;;;26.17;16.08;;;;;;;20.20;87.86;100285.56;4955447;28;20031;-81
2022/09/30 01:11:53;;;;;;;31.25;17.42;;;;;;;19.99;87.70;100244.59;4958591;28;20043;-79
2022/09/30 01:14:22;;;;;;;22.00;15.35;;;;;;;19.92;87.66;100238.22;4956682;28;20046;-82
2022/09/30 01:17:15;;;;;;;35.13;16.60;;;;;;;20.07;87.69;100271.75;4936671;28;20066;-80
2022/09/30 01:20:08;;;;;;;31.10;15.90;;;;;;;19.99;88.00;100274.63;4954484;28;20038;-81
2022/09/30 01:23:22;;;;;;;30.27;16.25;;;;;;;19.93;88.58;100272.66;4953981;28;20054;-79
2022/09/30 01:26:43;;;;;;;30.20;14.80;;;;;;;19.95;88.17;100268.69;4875995;29;20041;-80
2022/09/30 01:29:39;;;;;;;22.90;14.77;;;;;;;19.78;88.06;100250.88;4839129;29;20125;-80
2022/09/30 01:32:32;;;;;;;30.65;16.20;;;;;;;19.87;88.53;100278.91;4839631;29;20141;-81
2022/09/30 01:35:03;;;;;;;;;;;;;;;19.83;88.64;100272.97;4839704;29;20566;-80
2022/09/30 01:37:34;;;;;;;39.40;16.15;;;;;;;19.79;88.82;100276.28;4838666;29;19943;-80
2022/09/30 01:40:11;;;;;;;28.58;14.60;;;;;;;19.76;89.05;100276.66;4838102;29;20155;-81
2022/09/30 01:42:52;;;;;;;50.72;17.88;;;;;;;19.73;89.46;100277.91;4848043;29;20046;-81
2022/09/30 01:45:22;;;;;;;62.92;17.05;;;;;;;19.70;89.58;100275.53;4851001;29;20045;-81
2022/09/30 01:47:57;;;;;;;41.40;15.52;;;;;;;19.67;89.56;100272.34;4850987;29;20181;-81
2022/09/30 01:50:45;;;;;;;30.80;15.05;;;;;;;19.67;89.89;100277.81;4838281;29;21158;-79
2022/09/30 01:53:24;;;;;;;43.13;17.08;;;;;;;19.57;89.98;100264.47;4783035;29;20051;-80
2022/09/30 01:56:01;;;;;;;37.88;16.05;;;;;;;19.66;89.97;100279.72;4783028;29;20451;-80
2022/09/30 01:58:49;;;;;;;35.60;15.50;;;;;;;19.52;89.84;100262.34;4784111;29;20551;-81
2022/09/30 02:01:32;;;;;;;29.92;14.60;;;;;;;19.59;89.40;100272.47;4789884;29;20039;-81
2022/09/30 02:04:04;;;;;;;24.63;14.07;;;;;;;19.44;89.36;100254.28;4829456;29;20038;-80
2022/09/30 02:06:37;;;;;;;25.38;13.00;;;;;;;19.60;88.66;100288.63;4856585;29;20041;-82
2022/09/30 02:09:10;;;;;;;21.00;13.82;;;;;;;19.66;88.79;100297.97;4857079;29;20045;-81
2022/09/30 02:11:37;;;;;;;25.77;14.13;;;;;;;19.51;88.68;100279.72;4856533;29;20509;-82
2022/09/30 02:14:26;;;;;;;23.58;13.75;;;;;;;19.63;89.00;100290.16;4856641;29;20042;-81
2022/09/30 02:17:22;;;;;;;22.33;12.48;;;;;;;19.61;88.48;100300.41;4819981;29;20041;-80
2022/09/30 02:20:06;;;;;;;34.47;13.63;;;;;;;19.64;87.95;100314.50;4802226;29;20047;-82
2022/09/30 02:22:43;;;;;;;27.70;14.02;;;;;;;19.60;87.89;100305.00;4801723;29;20479;-81
2022/09/30 02:25:17;;;;;;;29.52;16.80;;;;;;;19.61;87.49;100303.97;4801223;29;20086;-81
2022/09/30 02:27:49;;;;;;;28.95;17.05;;;;;;;19.55;87.68;100310.19;4801707;29;20044;-80
2022/09/30 02:30:15;;;;;;;32.95;16.98;;;;;;;19.47;87.63;100293.94;4801833;29;20584;-81
2022/09/30 02:32:48;;;;;;;26.77;18.45;;;;;;;19.64;87.50;100328.16;4787131;29;20034;-81
2022/09/30 02:35:25;;;;;;;41.58;18.40;;;;;;;19.65;87.61;100329.00;4801178;29;20070;-82
2022/09/30 02:38:02;;;;;;;35.72;17.42;;;;;;;19.61;87.35;100325.81;4803365;29;20507;-80
2022/09/30 02:40:38;;;;;;;34.92;19.02;;;;;;;19.35;87.54;100290.84;4806928;29;20046;-80
2022/09/30 02:43:04;;;;;;;40.40;19.48;;;;;;;19.46;87.31;100295.81;4792304;29;20503;-82
2022/09/30 02:45:57;;;;;;;33.33;19.40;;;;;;;19.44;87.83;100303.38;4802263;29;20054;-80
2022/09/30 02:48:36;;;;;;;35.80;19.05;;;;;;;19.64;87.77;100335.50;4730828;30;20044;-79
2022/09/30 02:51:12;;;;;;;30.88;18.90;;;;;;;19.39;88.50;100308.53;4730685;30;20096;-81
2022/09/30 02:54:22;;;;;;;32.70;19.48;;;;;;;19.54;89.27;100333.91;4737713;30;20048;-83
2022/09/30 02:56:51;;;;;;;30.13;18.05;;;;;;;19.54;88.94;100330.31;4785419;29;20233;-83
2022/09/30 02:59:17;;;;;;;48.38;18.52;;;;;;;19.56;88.24;100336.47;4823233;29;20135;-80
2022/09/30 03:01:42;;;;;;;53.20;20.40;;;;;;;19.59;88.45;100335.22;4837765;29;20050;-82
2022/09/30 03:04:12;;;;;;;33.25;20.20;;;;;;;19.42;88.20;100313.59;4845077;29;20657;-82
2022/09/30 03:06:38;;;;;;;48.45;20.00;;;;;;;19.61;88.41;100323.09;4853271;29;20041;-82
2022/09/30 03:09:04;;;;;;;43.28;18.45;;;;;;;19.53;88.14;100320.47;4817587;29;20046;-80
2022/09/30 03:11:30;;;;;;;35.80;17.63;;;;;;;19.58;87.22;100330.78;4839889;29;20117;-81
2022/09/30 03:14:05;;;;;;;24.63;16.48;;;;;;;19.60;86.80;100342.38;4838349;29;20042;-81
2022/09/30 03:16:39;;;;;;;31.42;14.77;;;;;;;19.58;86.63;100345.28;4838990;29;20090;-81
2022/09/30 03:19:23;;;;;;;30.83;14.07;;;;;;;19.45;85.75;100335.03;4851464;29;20071;-83
2022/09/30 03:22:00;;;;;;;32.05;14.88;;;;;;;19.55;85.33;100349.25;4861362;29;20054;-80
2022/09/30 03:24:41;;;;;;;33.92;14.35;;;;;;;19.41;85.06;100317.38;4869560;28;20476;-83
2022/09/30 03:27:29;;;;;;;30.45;15.02;;;;;;;19.29;84.38;100310.69;4958376;28;20023;-80
2022/09/30 03:30:05;;;;;;;26.35;16.15;;;;;;;19.52;84.38;100360.53;4973273;28;20037;-81
2022/09/30 03:33:08;;;;;;;35.85;20.50;;;;;;;19.51;84.59;100361.56;4967438;28;20035;-83
2022/09/30 03:35:47;;;;;;;38.80;21.10;;;;;;;19.55;84.70;100362.03;4892098;29;20125;-86
2022/09/30 03:38:38;;;;;;;38.45;19.33;;;;;;;19.60;85.13;100358.75;4891874;29;20045;-77
2022/09/30 03:41:21;;;;;;;28.27;18.30;;;;;;;19.59;85.30;100351.59;4891774;29;20036;-79
2022/09/30 03:43:49;;;;;;;32.58;17.08;;;;;;;19.57;85.37;100361.88;4891827;29;20036;-80
2022/09/30 03:46:20;;;;;;;67.13;17.23;;;;;;;19.46;85.83;100344.94;4892206;29;20048;-79
2022/09/30 03:48:49;;;;;;;43.50;17.95;;;;;;;19.34;85.72;100340.94;4895520;29;20036;-79
2022/09/30 03:51:16;;;;;;;34.53;15.32;;;;;;;19.42;85.76;100359.97;4895422;29;20052;-79
2022/09/30 03:53:45;;;;;;;32.25;16.73;;;;;;;19.34;85.86;100349.13;4895291;29;20071;-79
2022/09/30 03:56:11;;;;;;;192.52;26.35;;;;;;;19.37;85.96;100356.94;4897349;29;20051;-84
2022/09/30 03:58:42;;;;;;;52.92;21.00;;;;;;;19.34;86.08;100364.63;4896852;29;20075;-77
2022/09/30 04:01:20;;;;;;;49.40;31.52;;;;;;;19.30;86.39;100366.03;4895665;29;20060;-83
2022/09/30 04:03:51;;;;;;;55.65;34.78;;;;;;;19.35;86.52;100385.44;4895554;29;20036;-81
2022/09/30 04:06:17;;;;;;;75.80;46.20;;;;;;;19.19;86.77;100353.72;4896000;29;20051;-82
2022/09/30 04:08:43;;;;;;;66.68;43.88;;;;;;;19.22;86.60;100377.03;4899724;29;20115;-83
2022/09/30 04:11:09;;;;;;;68.15;42.65;;;;;;;19.08;86.60;100334.28;4906545;29;20689;-82
2022/09/30 04:13:36;;;;;;;68.50;45.35;;;;;;;19.28;86.74;100377.16;4904001;29;20044;-82
2022/09/30 04:16:02;;;;;;;80.60;46.08;;;;;;;19.28;86.76;100382.59;4938819;29;20020;-82
2022/09/30 04:18:29;;;;;;;73.25;47.72;;;;;;;19.27;86.74;100389.09;4937682;29;20492;-81
2022/09/30 04:20:55;;;;;;;78.88;47.20;;;;;;;19.19;86.47;100371.97;4936865;29;20055;-80
2022/09/30 04:23:20;;;;;;;94.75;46.55;;;;;;;19.23;86.13;100382.34;4937271;29;20036;-83
2022/09/30 04:25:54;;;;;;;73.50;45.42;;;;;;;19.08;85.79;100353.34;4920237;29;20170;-81
2022/09/30 04:28:20;;;;;;;78.00;45.38;;;;;;;19.30;85.75;100396.88;4941011;29;20036;-81
2022/09/30 04:30:45;;;;;;;74.80;44.58;;;;;;;19.20;85.70;100388.16;4908142;29;20042;-82
2022/09/30 04:33:11;;;;;;;67.85;42.15;;;;;;;19.24;85.64;100396.78;4947763;29;20150;-82
2022/09/30 04:35:38;;;;;;;81.85;40.95;;;;;;;19.29;85.64;100406.13;4936445;29;20114;-83
2022/09/30 04:38:06;;;;;;;74.55;40.05;;;;;;;19.29;86.07;100416.19;4936572;29;20024;-82
2022/09/30 04:40:35;;;;;;;72.80;41.30;;;;;;;19.15;86.42;100398.75;4904582;29;20146;-82
2022/09/30 04:43:00;;;;;;;77.50;39.15;;;;;;;19.04;86.76;100385.59;4949755;28;20495;-85
2022/09/30 04:45:26;;;;;;;74.47;37.55;;;;;;;19.15;86.60;100403.34;4954046;28;20039;-78
2022/09/30 04:47:51;;;;;;;95.90;40.65;;;;;;;19.30;86.53;100443.25;4960477;28;20019;-79
2022/09/30 04:50:17;;;;;;;135.80;41.58;;;;;;;19.26;86.52;100430.19;4962860;28;20035;-79
2022/09/30 04:52:43;;;;;;;76.30;35.53;;;;;;;19.33;86.54;100440.16;4966200;28;20391;-78
2022/09/30 04:55:10;;;;;;;77.80;35.35;;;;;;;19.23;86.61;100417.78;4972288;28;20411;-78
2022/09/30 04:57:36;;;;;;;80.20;34.35;;;;;;;19.41;86.67;100442.84;4971886;28;20109;-80
2022/09/30 05:00:03;;;;;;;237.25;41.35;;;;;;;19.32;86.42;100422.13;4972375;28;21145;-81
2022/09/30 05:02:29;;;;;;;110.60;32.03;;;;;;;19.47;86.14;100442.09;4973360;28;20046;-83
2022/09/30 05:04:54;;;;;;;165.90;35.50;;;;;;;19.46;86.00;100442.28;4957038;28;20095;-80
2022/09/30 05:07:21;;;;;;;117.38;30.38;;;;;;;19.54;85.76;100448.47;4972267;28;20398;-81
2022/09/30 05:09:46;;;;;;;81.85;34.47;;;;;;;19.18;85.37;100390.19;4971773;28;20410;-85
2022/09/30 05:12:12;;;;;;;57.60;29.30;;;;;;;19.32;84.61;100405.75;4955457;28;20125;-81
2022/09/30 05:14:39;;;;;;;64.47;28.10;;;;;;;19.60;84.43;100448.78;4973020;28;20038;-84
2022/09/30 05:17:04;;;;;;;87.72;35.70;;;;;;;19.59;84.28;100428.00;4974412;28;20042;-82
2022/09/30 05:19:29;;;;;;;88.75;30.35;;;;;;;19.66;84.16;100434.41;4974676;28;20027;-87
2022/09/30 05:21:55;;;;;;;63.53;23.25;;;;;;;19.64;84.25;100437.31;4971578;28;20030;-84
2022/09/30 05:24:21;;;;;;;79.05;21.17;;;;;;;19.70;84.54;100446.59;4973743;28;20023;-84
2022/09/30 05:26:46;;;;;;;43.20;18.38;;;;;;;19.36;84.48;100387.97;4972827;28;20911;-83
2022/09/30 05:29:12;;;;;;;35.70;15.60;;;;;;;19.67;83.13;100420.56;4974322;28;20458;-84
2022/09/30 05:31:37;;;;;;;44.20;14.90;;;;;;;19.86;82.47;100452.75;4973023;28;20030;-84
2022/09/30 05:34:03;;;;;;;37.35;16.45;;;;;;;19.96;81.78;100447.84;4973104;28;20479;-81
2022/09/30 05:36:28;;;;;;;29.60;14.27;;;;;;;20.05;81.44;100451.31;4971485;28;20517;-79
2022/09/30 05:38:54;;;;;;;42.28;13.57;;;;;;;19.60;80.92;100370.50;4977237;28;20597;-79
2022/09/30 05:41:19;;;;;;;45.22;10.65;;;;;;;20.17;80.64;100448.94;4969329;28;20498;-79
2022/09/30 05:43:49;;;;;;;64.00;18.65;;;;;;;20.20;80.96;100434.91;4952037;28;20035;-81
2022/09/30 05:46:15;;;;;;;49.45;24.83;;;;;;;20.26;81.05;100426.81;4952091;28;20122;-79
2022/09/30 05:48:41;;;;;;;24.80;10.57;;;;;;;20.46;80.47;100433.34;4961083;28;20050;-79
2022/09/30 05:51:06;;;;;;;52.00;11.52;;;;;;;20.57;80.19;100430.13;4968995;28;20023;-80
2022/09/30 05:53:37;;;;;;;44.10;10.27;;;;;;;20.68;79.98;100427.88;4969100;28;20086;-81
2022/09/30 05:56:02;;;;;;;29.45;9.98;;;;;;;20.80;79.30;100429.06;4959412;28;20042;-80
2022/09/30 05:58:28;;;;;;;24.67;9.65;;;;;;;20.89;79.00;100439.69;4952107;28;20035;-80
2022/09/30 06:00:53;;;;;;;32.10;10.27;;;;;;;20.91;78.00;100420.34;4957353;28;20457;-80
2022/09/30 06:03:19;;;;;;;52.15;15.02;;;;;;;20.99;77.03;100420.22;4970836;28;20399;-80
2022/09/30 06:05:45;;;;;;;56.92;15.40;;;;;;;21.21;76.27;100432.84;4971096;28;20034;-82
2022/09/30 06:08:11;;;;;;;30.15;12.70;;;;;;;21.06;75.13;100391.88;4971193;28;20030;-80
2022/09/30 06:10:42;;;;;;;86.38;21.85;;;;;;;21.27;74.89;100425.72;4970516;28;20023;-81
2022/09/30 06:13:09;;;;;;;78.73;23.30;;;;;;;21.56;74.95;100472.88;4970573;28;20035;-82
2022/09/30 06:15:36;;;;;;;86.82;33.53;;;;;;;21.34;75.65;100426.63;4970451;28;20039;-80
2022/09/30 06:18:02;;;;;;;102.35;43.35;;;;;;;21.68;75.91;100474.03;4970117;28;20109;-85
2022/09/30 06:20:28;;;;;;;110.70;44.20;;;;;;;21.44;76.10;100430.69;4971995;28;20454;-85
2022/09/30 06:22:53;;;;;;;97.22;44.78;;;;;;;21.53;75.87;100448.66;4970992;28;20033;-82
2022/09/30 06:25:19;;;;;;;112.90;42.20;;;;;;;21.59;76.05;100464.28;4970370;28;20117;-82
2022/09/30 06:27:46;;;;;;;72.25;38.50;;;;;;;21.76;76.23;100485.88;4969947;28;20152;-83
2022/09/30 06:30:13;;;;;;;78.00;31.90;;;;;;;21.76;76.21;100488.59;4970765;28;20402;-83
2022/09/30 06:32:39;;;;;;;82.28;30.23;;;;;;;21.78;76.01;100486.50;4971311;28;20089;-84
2022/09/30 06:35:05;;;;;;;77.43;27.52;;;;;;;21.79;75.75;100490.94;4970308;28;20031;-83
2022/09/30 06:37:30;;;;;;;67.95;27.02;;;;;;;21.49;75.16;100436.44;4970593;28;20050;-81
2022/09/30 06:39:56;;;;;;;90.60;27.77;;;;;;;21.64;74.49;100475.47;4969107;28;20027;-82
2022/09/30 06:42:23;;;;;;;60.35;25.95;;;;;;;21.83;74.20;100519.63;4957004;28;20038;-83
2022/09/30 06:44:50;;;;;;;67.30;26.90;;;;;;;21.81;74.75;100500.63;4951185;28;20463;-79
2022/09/30 06:47:16;;;;;;;55.58;25.90;;;;;;;21.85;74.63;100503.84;4952202;28;20107;-81
2022/09/30 06:49:42;;;;;;;67.35;24.30;;;;;;;21.87;73.43;100504.47;4951481;28;20054;-83
2022/09/30 06:52:13;;;;;;;105.15;45.22;;;;;;;21.91;73.17;100514.00;4951910;28;20522;-83
2022/09/30 06:54:42;;;;;;;117.45;52.65;;;;;;;21.87;73.72;100512.69;4952395;28;20091;-89
2022/09/30 06:57:08;;;;;;;62.88;25.90;;;;;;;21.73;73.48;100489.00;4955861;28;20031;-87
2022/09/30 06:59:34;;;;;;;64.72;25.88;;;;;;;21.80;73.26;100503.59;4939252;29;20058;-89
2022/09/30 07:01:59;;;;;;;66.65;24.50;;;;;;;21.61;73.57;100461.34;4941235;29;20055;-89
2022/09/30 07:04:25;;;;;;;64.07;25.27;;;;;;;21.78;73.86;100484.63;4962058;28;20087;-86
2022/09/30 07:06:50;;;;;;;74.43;23.83;;;;;;;22.03;73.32;100513.25;4971917;28;20438;-82
2022/09/30 07:09:16;;;;;;;77.75;20.45;;;;;;;22.32;73.00;100552.41;4961750;28;20041;-82
2022/09/30 07:11:42;;;;;;;57.65;21.15;;;;;;;22.29;71.55;100542.69;4970957;28;20054;-83
2022/09/30 07:14:09;;;;;;;43.55;18.10;;;;;;;22.47;70.49;100555.84;4969763;28;20035;-82
2022/09/30 07:16:34;;;;;;;56.55;18.38;;;;;;;22.50;70.15;100550.81;4970068;28;21071;-85
2022/09/30 07:19:02;;;;;;;55.17;20.05;;;;;;;22.63;70.21;100567.31;4951414;28;20035;-83
2022/09/30 07:21:29;;;;;;;44.25;18.45;;;;;;;22.58;69.43;100547.03;4952740;28;20533;-79
2022/09/30 07:23:55;;;;;;;42.50;18.70;;;;;;;22.65;68.35;100559.78;4954092;28;20042;-80
2022/09/30 07:26:22;;;;;;;40.25;17.73;;;;;;;22.58;68.14;100536.94;4955990;28;20106;-85
2022/09/30 07:28:49;;;;;;;49.78;16.35;;;;;;;22.70;67.36;100540.81;4956876;28;20028;-83
2022/09/30 07:31:21;;;;;;;48.42;18.75;;;;;;;22.70;66.83;100513.38;4956078;28;20035;-84
2022/09/30 07:33:50;;;;;;;31.63;17.95;;;;;;;23.02;66.99;100543.84;4954484;28;20059;-79
2022/09/30 07:36:17;;;;;;;36.38;13.25;;;;;;;23.04;66.15;100555.44;4954702;28;20581;-83
2022/09/30 07:38:43;;;;;;;46.47;14.32;;;;;;;23.00;64.52;100545.94;4955442;28;20031;-80
2022/09/30 07:41:16;;;;;;;37.25;14.45;;;;;;;23.05;64.63;100555.25;4953963;28;20039;-81
2022/09/30 07:43:43;;;;;;;42.60;19.25;;;;;;;23.15;64.47;100554.84;4921230;28;20039;-80
2022/09/30 07:46:16;;;;;;;43.25;14.60;;;;;;;23.12;64.65;100527.81;4955533;28;20055;-80
2022/09/30 07:48:47;;;;;;;29.38;12.43;;;;;;;23.35;64.87;100557.63;4936411;28;20112;-82
2022/09/30 07:51:26;;;;;;;41.22;11.77;;;;;;;23.37;62.56;100553.59;4937165;28;20186;-81
2022/09/30 07:53:56;;;;;;;35.33;9.73;;;;;;;23.25;60.49;100538.81;4956084;28;20035;-81
2022/09/30 07:56:23;;;;;;;59.45;11.15;;;;;;;23.24;60.93;100539.84;4955931;29;20102;-82
2022/09/30 07:58:53;;;;;;;56.13;10.30;;;;;;;23.38;61.50;100541.59;4957517;29;20098;-82
2022/09/30 08:01:19;;;;;;;25.77;9.15;;;;;;;23.42;61.73;100531.91;4964867;29;20075;-84
2022/09/30 08:03:44;;;;;;;23.25;8.60;;;;;;;23.49;61.01;100545.63;4961295;28;20062;-83
2022/09/30 08:06:14;;;;;;;21.00;7.65;;;;;;;23.58;60.80;100549.84;4977362;29;20062;-79
2022/09/30 08:08:40;;;;;;;23.55;8.77;;;;;;;23.61;59.81;100554.91;4960127;29;20042;-85
2022/09/30 08:11:06;;;;;;;37.78;9.93;;;;;;;23.60;60.25;100551.34;4960833;29;20035;-86
2022/09/30 08:13:32;;;;;;;26.65;10.27;;;;;;;23.61;59.90;100544.78;4964185;29;20031;-86
2022/09/30 08:15:58;;;;;;;45.00;9.43;;;;;;;23.71;59.92;100561.69;4937759;29;20114;-86
2022/09/30 08:18:23;;;;;;;64.60;11.95;;;;;;;23.81;59.82;100551.13;4955180;29;20035;-86
2022/09/30 08:20:49;;;;;;;30.63;10.35;;;;;;;23.71;59.77;100517.75;4955135;29;20485;-86
2022/09/30 08:23:15;;;;;;;33.50;9.63;;;;;;;24.02;59.47;100546.44;4956554;29;20031;-88
2022/09/30 08:25:40;;;;;;;28.20;8.77;;;;;;;23.85;60.04;100502.09;4957493;29;20031;-83
2022/09/30 08:28:06;;;;;;;37.00;7.60;;;;;;;24.09;59.17;100530.78;4954842;29;20046;-84
2022/09/30 08:30:35;;;;;;;51.75;12.13;;;;;;;24.36;57.42;100554.44;4954835;29;20527;-82
2022/09/30 08:33:00;;;;;;;19.33;7.05;;;;;;;24.41;56.92;100557.38;4952584;29;20042;-82
2022/09/30 08:35:26;;;;;;;13.45;7.15;;;;;;;24.28;57.47;100524.41;4971504;29;20031;-86
2022/09/30 08:37:51;;;;;;;20.50;8.05;;;;;;;24.35;57.56;100537.09;4974609;28;20047;-84
2022/09/30 08:40:30;;;;;;;19.58;6.43;;;;;;;23.96;57.43;100470.38;4961971;29;20045;-88
2022/09/30 08:43:30;;;;;;;45.47;8.50;;;;;;;24.50;56.89;100558.81;4915810;29;20042;-83
2022/09/30 08:46:01;;;;;;;122.95;11.95;;;;;;;24.55;57.30;100570.03;4913260;29;20040;-83
2022/09/30 08:48:51;;;;;;;29.00;9.52;;;;;;;24.60;57.12;100581.22;4912369;29;20047;-82
2022/09/30 08:51:27;;;;;;;20.63;7.00;;;;;;;24.57;56.02;100584.41;4913192;29;20496;-83
2022/09/30 08:53:54;;;;;;;36.92;7.95;;;;;;;24.55;56.29;100586.53;4913726;29;20032;-86
2022/09/30 08:56:28;;;;;;;19.65;8.48;;;;;;;24.67;57.18;100595.78;4913331;29;20481;-85
2022/09/30 08:59:15;;;;;;;16.88;8.98;;;;;;;24.38;56.48;100530.31;4913601;29;20040;-83
2022/09/30 09:01:45;;;;;;;32.10;9.07;;;;;;;24.75;56.93;100576.28;4912543;29;20043;-82
2022/09/30 09:04:12;;;;;;;39.47;8.50;;;;;;;24.81;56.57;100591.09;4912958;29;20062;-84
2022/09/30 09:07:16;;;;;;;25.95;9.13;;;;;;;24.81;57.32;100575.44;4913640;29;20452;-81
2022/09/30 09:10:22;;;;;;;21.42;7.63;;;;;;;24.92;56.89;100576.69;4911513;29;20054;-82
2022/09/30 09:12:54;;;;;;;38.03;9.57;;;;;;;24.96;56.76;100571.53;4856978;29;20052;-85
2022/09/30 09:15:38;;;;;;;29.70;8.00;;;;;;;25.22;56.37;100605.31;4892976;29;20036;-82
2022/09/30 09:18:40;;;;;;;74.18;10.57;;;;;;;25.31;56.21;100594.88;4892762;29;20109;-85
2022/09/30 09:21:18;;;;;;;;;;;;;;;25.35;55.98;100607.94;4892856;29;20109;-81
2022/09/30 09:23:43;;;;;;;33.33;8.60;;;;;;;25.25;56.24;100585.59;4893033;29;19920;-83
2022/09/30 09:26:13;;;;;;;15.02;8.43;;;;;;;25.40;56.16;100607.31;4894870;29;20044;-83
2022/09/30 09:28:47;;;;;;;19.88;11.15;;;;;;;25.51;55.82;100601.09;4894855;29;20108;-84
2022/09/30 09:31:17;;;;;;;34.10;11.48;;;;;;;25.58;56.18;100593.66;4911550;29;20054;-88
2022/09/30 09:33:43;;;;;;;40.72;11.10;;;;;;;25.79;55.51;100615.31;4913207;29;20036;-88
2022/09/30 09:36:41;;;;;;;37.38;20.73;;;;;;;25.85;56.34;100608.91;4911559;29;20086;-90
2022/09/30 09:39:44;;;;;;;23.13;10.15;;;;;;;25.97;55.38;100609.84;4913387;29;20035;-86
2022/09/30 09:42:18;;;;;;;28.90;12.20;;;;;;;26.20;55.04;100606.50;4893064;29;20119;-84
2022/09/30 09:44:56;;;;;;;36.40;9.18;;;;;;;26.24;54.18;100588.41;4873744;29;20036;-84
2022/09/30 09:47:21;;;;;;;41.85;8.90;;;;;;;26.32;54.05;100581.78;4874905;29;20036;-79
2022/09/30 09:49:54;;;;;;;25.42;8.27;;;;;;;26.58;54.13;100592.50;4899722;29;20040;-82
2022/09/30 09:52:29;;;;;;;82.05;17.52;;;;;;;26.52;53.95;100563.91;4934299;29;20320;-81
2022/09/30 09:54:55;;;;;;;20.77;11.18;;;;;;;26.76;52.40;100586.97;4940865;29;20032;-80
2022/09/30 09:57:30;;;;;;;31.02;7.63;;;;;;;26.82;52.22;100575.03;4946319;29;20038;-80
2022/09/30 09:59:58;;;;;;;15.20;7.72;;;;;;;27.04;51.92;100590.03;4945103;29;20130;-81
2022/09/30 10:02:26;;;;;;;26.55;7.85;;;;;;;27.13;51.43;100587.78;4935845;29;20083;-82
2022/09/30 10:05:03;;;;;;;28.60;7.90;;;;;;;27.33;52.23;100587.50;4933238;29;20032;-81
2022/09/30 10:07:31;;;;;;;25.95;9.38;;;;;;;27.37;50.57;100578.50;4938419;29;20111;-79
2022/09/30 10:10:17;;;;;;;28.88;9.20;;;;;;;27.41;51.52;100579.72;4933938;29;20032;-81
2022/09/30 10:12:44;;;;;;;37.35;11.82;;;;;;;27.38;52.95;100574.66;4932988;29;20082;-81
2022/09/30 10:15:18;;;;;;;29.30;12.70;;;;;;;27.49;53.69;100581.34;4932924;29;20488;-82
2022/09/30 10:17:58;;;;;;;19.63;10.27;;;;;;;27.60;54.31;100579.69;4911266;29;20042;-82
2022/09/30 10:20:30;;;;;;;42.20;12.15;;;;;;;27.70;54.80;100589.09;4910698;29;20048;-79
2022/09/30 10:23:09;;;;;;;27.13;10.02;;;;;;;27.83;54.11;100588.84;4911828;29;20544;-82
2022/09/30 10:25:35;;;;;;;140.80;15.13;;;;;;;27.91;53.39;100585.75;4911495;29;20036;-82
2022/09/30 10:28:19;;;;;;;33.72;12.95;;;;;;;27.79;53.95;100586.81;4910376;29;20087;-81
2022/09/30 10:30:50;;;;;;;32.85;13.25;;;;;;;27.82;55.15;100576.13;4895424;29;20036;-81
2022/09/30 10:33:24;;;;;;;105.40;16.42;;;;;;;27.79;54.70;100582.13;4910971;29;20501;-81
2022/09/30 10:36:20;;;;;;;121.80;18.55;;;;;;;27.55;55.28;100578.47;4910409;29;20412;-80
2022/09/30 10:39:14;;;;;;;24.63;12.80;;;;;;;27.41;55.98;100578.88;4854494;29;20038;-81
2022/09/30 10:41:40;;;;;;;49.22;14.32;;;;;;;27.49;56.07;100578.59;4851730;29;20052;-81
2022/09/30 10:44:16;;;;;;;20.60;11.00;;;;;;;27.50;55.11;100541.56;4854337;29;20038;-81
2022/09/30 10:46:43;;;;;;;22.58;10.45;;;;;;;27.75;54.86;100556.03;4854590;29;20041;-81
2022/09/30 10:49:27;;;;;;;16.20;10.70;;;;;;;28.12;53.94;100569.66;4854604;29;20499;-81
2022/09/30 10:51:54;;;;;;;32.20;12.13;;;;;;;27.96;51.82;100535.25;4854932;29;20041;-81
2022/09/30 10:54:43;;;;;;;21.95;8.68;;;;;;;28.08;51.25;100570.16;4871451;29;20123;-85
2022/09/30 10:57:20;;;;;;;395.00;39.28;;;;;;;28.20;51.27;100572.06;4886307;29;20126;-82
2022/09/30 10:59:47;;;;;;;72.57;12.15;;;;;;;28.10;50.38;100567.16;4864425;29;20116;-80
2022/09/30 11:02:31;;;;;;;26.05;9.13;;;;;;;28.00;50.60;100564.97;4864501;29;20057;-80
2022/09/30 11:05:21;;;;;;;24.42;8.02;;;;;;;27.89;50.07;100573.22;4873370;29;20043;-85
2022/09/30 11:08:03;;;;;;;38.58;7.93;;;;;;;27.92;50.38;100561.72;4873964;29;20028;-83
2022/09/30 11:10:37;;;;;;;26.48;7.57;;;;;;;27.74;49.47;100568.16;4869022;29;20040;-82
2022/09/30 11:13:25;;;;;;;26.92;7.60;;;;;;;27.85;49.57;100572.88;4860839;29;20505;-82
2022/09/30 11:16:09;;;;;;;12.63;7.50;;;;;;;27.79;49.38;100564.69;4932007;28;20043;-81
2022/09/30 11:18:46;;;;;;;36.90;8.38;;;;;;;27.72;49.00;100551.00;4963470;28;20070;-82
2022/09/30 11:21:20;;;;;;;16.75;7.45;;;;;;;27.48;49.12;100530.78;4963280;28;20038;-81
2022/09/30 11:23:58;;;;;;;47.75;9.27;;;;;;;27.64;48.62;100526.47;4957270;28;20039;-82
2022/09/30 11:26:31;;;;;;;18.75;6.55;;;;;;;27.67;48.70;100550.88;4951000;28;20118;-81
2022/09/30 11:29:06;;;;;;;25.98;7.55;;;;;;;27.51;48.51;100513.72;4950660;28;20039;-81
2022/09/30 11:31:51;;;;;;;10.95;6.78;;;;;;;27.75;47.81;100569.84;4935830;28;20054;-83
2022/09/30 11:34:31;;;;;;;17.65;6.38;;;;;;;27.84;47.72;100578.63;4950386;28;20107;-84
2022/09/30 11:37:05;;;;;;;93.47;10.85;;;;;;;27.85;46.21;100575.66;4956542;28;20047;-83